Time;durP1;ratioP1;P1;durP2;ratioP2;P2;SDS_P1;SDS_P2;PMS_P1;PMS_P2;Temp;Humidity;BMP_temperature;BMP_pressure;BME280_temperature;BME280_humidity;BME280_pressure;Samples;Min_cycle;Max_cycle;Signal;HPM_P1;HPM_P2
2022/08/24 19:00:39;;;;;;;4.38;1.38;;;;;;;19.37;90.16;102060.50;6215615;22;20813;31
2022/08/24 19:18:40;;;;;;;3.30;1.42;;;;;;;20.58;89.15;102267.38;6215045;22;20023;31
2022/08/24 19:47:11;;;;;;;5.32;1.70;;;;;;;18.61;93.40;102064.34;6222886;22;20012;-80
2022/08/24 19:49:36;;;;;;;4.80;1.42;;;;;;;19.14;93.81;102152.06;6188695;23;20013;-82
2022/08/24 19:52:02;;;;;;;3.13;1.48;;;;;;;18.70;94.00;102110.22;6213308;22;19992;-84
2022/08/24 19:54:38;;;;;;;4.15;1.35;;;;;;;19.71;94.97;102267.47;6222249;22;21051;-78
2022/08/24 19:59:41;;;;;;;3.80;1.40;;;;;;;18.47;96.17;102096.31;6218190;22;20012;-78
2022/08/24 20:02:07;;;;;;;3.65;1.27;;;;;;;18.40;97.47;102104.56;6212552;23;20042;-80
2022/08/24 20:04:33;;;;;;;6.40;1.65;;;;;;;18.02;97.81;102058.28;6211952;23;20028;-85
2022/08/24 20:06:58;;;;;;;4.03;1.70;;;;;;;19.33;98.51;102273.00;6212484;23;20000;-83
2022/08/24 20:09:24;;;;;;;6.30;1.80;;;;;;;18.15;99.29;102106.41;6212198;23;20044;-85
2022/08/24 20:11:50;;;;;;;7.65;1.67;;;;;;;19.18;100.00;102265.16;6212411;23;20050;-84
2022/08/24 20:14:17;;;;;;;4.55;1.63;;;;;;;18.01;100.00;102078.38;6186911;23;20008;-85
2022/08/24 20:16:42;;;;;;;5.80;1.58;;;;;;;18.12;100.00;102101.38;6187672;23;20001;-85
2022/08/24 20:38:14;;;;;;;5.13;1.70;;;;;;;17.50;98.27;102066.41;6239560;22;20023;-84
2022/08/24 20:40:40;;;;;;;5.38;2.05;;;;;;;17.53;97.41;102070.59;6216940;22;20351;-85
2022/08/24 20:43:06;;;;;;;3.90;1.70;;;;;;;17.70;96.80;102077.22;6242753;22;20019;-85
2022/08/24 20:45:32;;;;;;;5.10;1.70;;;;;;;18.06;96.13;102144.75;6242936;22;19989;-85
2022/08/24 20:47:57;;;;;;;6.72;1.65;;;;;;;18.16;95.72;102160.66;6242874;22;20001;-85
2022/08/24 20:50:24;;;;;;;6.40;1.60;;;;;;;17.69;95.43;102093.78;6243190;22;19999;-84
2022/08/24 20:55:25;;;;;;;4.38;1.80;;;;;;;17.49;95.32;102091.13;6240310;22;20011;-84
2022/08/24 20:57:54;;;;;;;2.78;1.73;;;;;;;17.40;95.21;102093.25;6216806;23;20008;-84
2022/08/24 21:00:22;;;;;;;5.43;1.42;;;;;;;17.36;95.39;102087.38;6242413;22;20060;-83
2022/08/24 21:02:48;;;;;;;4.40;1.77;;;;;;;17.77;95.62;102159.75;6216614;23;19989;-84
2022/08/24 21:05:15;;;;;;;3.13;1.50;;;;;;;17.30;95.92;102096.41;6216959;23;20048;-84
2022/08/24 21:07:48;;;;;;;4.95;1.42;;;;;;;17.28;96.20;102087.59;6215438;23;20024;-84
2022/08/24 21:10:15;;;;;;;5.95;1.83;;;;;;;17.19;96.40;102099.78;6216769;23;20012;-84
2022/08/24 21:12:42;;;;;;;2.88;1.58;;;;;;;18.41;96.83;102291.56;6217077;23;20000;-84
2022/08/24 21:15:08;;;;;;;4.70;1.60;;;;;;;17.23;96.92;102111.91;6216227;23;20043;-84
2022/08/24 21:17:33;;;;;;;4.40;1.58;;;;;;;18.36;97.28;102301.44;6216821;23;20017;-84
2022/08/24 21:19:59;;;;;;;7.00;1.83;;;;;;;17.77;97.57;102222.38;6217042;23;19997;-84
2022/08/24 21:22:25;;;;;;;5.75;1.60;;;;;;;17.38;97.83;102157.91;6218528;23;19996;-84
2022/08/24 21:24:50;;;;;;;3.95;1.90;;;;;;;16.96;97.85;102112.97;6218538;23;20024;-83
2022/08/24 21:27:17;;;;;;;6.85;1.98;;;;;;;16.76;97.96;102086.63;6244621;23;19993;-83
2022/08/24 21:29:43;;;;;;;5.43;1.70;;;;;;;16.77;98.00;102091.00;6218382;23;19998;-84
2022/08/24 21:47:52;;;;;;;7.60;2.17;;;;;;;17.50;99.58;102256.09;6243341;22;20033;-84
2022/08/24 21:50:19;;;;;;;5.18;1.80;;;;;;;17.80;99.64;102308.22;6218786;22;20040;-84
2022/08/24 22:16:01;;;;;;;5.50;2.00;;;;;;;17.44;100.00;102320.34;6221223;22;20023;-83
2022/08/24 22:21:09;;;;;;;4.53;1.95;;;;;;;16.84;100.00;102252.22;6241927;22;20019;-84
2022/08/24 22:23:35;;;;;;;5.28;2.08;;;;;;;16.74;100.00;102250.94;6244166;22;19988;-83
2022/08/24 22:26:01;;;;;;;5.07;1.77;;;;;;;16.80;100.00;102256.41;6218352;23;20000;-84
2022/08/24 22:28:27;;;;;;;6.05;2.00;;;;;;;16.16;100.00;102161.72;6244222;22;20001;-84
2022/08/24 22:38:41;;;;;;;5.28;2.00;;;;;;;15.64;100.00;102111.53;6228757;22;21260;-81
2022/08/24 22:51:23;;;;;;;6.75;2.10;;;;;;;15.32;100.00;102105.69;6243990;23;20101;-84
2022/08/24 22:53:48;;;;;;;5.32;1.95;;;;;;;15.39;100.00;102112.00;6243141;23;19996;-83
2022/08/24 22:56:16;;;;;;;6.88;2.15;;;;;;;15.19;100.00;102089.34;6243958;23;20004;-84
2022/08/24 22:58:43;;;;;;;8.45;3.05;;;;;;;15.18;100.00;102088.50;6217735;23;20000;-83
2022/08/24 23:01:09;;;;;;;2.95;2.00;;;;;;;15.59;100.00;102170.97;6243366;23;19997;-84
2022/08/24 23:03:34;;;;;;;6.28;2.10;;;;;;;15.21;100.00;102098.13;6242921;23;20027;-84
2022/08/24 23:06:00;;;;;;;3.65;1.80;;;;;;;15.57;100.00;102170.34;6243744;23;19985;-84
2022/08/24 23:08:25;;;;;;;3.55;2.17;;;;;;;16.00;100.00;102236.19;6244074;23;20064;-84
2022/08/24 23:10:51;;;;;;;5.45;2.30;;;;;;;16.27;100.00;102288.78;6217148;23;20009;-83
2022/08/24 23:13:17;;;;;;;4.25;2.42;;;;;;;15.68;100.00;102205.09;6217512;23;20012;-83
2022/08/24 23:15:43;;;;;;;4.88;1.83;;;;;;;15.33;100.00;102144.50;6243206;23;19997;-83
2022/08/24 23:19:58;;;;;;;3.78;1.95;;;;;;;15.30;100.00;102161.16;6216917;23;20001;-83
2022/08/24 23:20:54;;;;;;;3.75;2.05;;;;;;;14.99;100.00;102106.28;6243049;23;20064;-83
2022/08/24 23:23:20;;;;;;;3.30;2.13;;;;;;;15.42;100.00;102187.56;6217222;23;20003;-83
2022/08/24 23:25:45;;;;;;;5.05;2.00;;;;;;;14.77;100.00;102096.53;6244158;23;19989;-83
2022/08/24 23:28:12;;;;;;;3.47;2.13;;;;;;;15.09;100.00;102154.75;6243506;23;20012;-83
2022/08/24 23:30:37;;;;;;;5.38;2.30;;;;;;;14.75;100.00;102102.16;6243339;23;20019;-84
2022/08/24 23:33:04;;;;;;;6.55;2.55;;;;;;;15.27;100.00;102184.94;6242795;23;20004;-83
2022/08/24 23:35:31;;;;;;;3.38;2.00;;;;;;;14.77;100.00;102107.38;6216973;23;20004;-84
2022/08/24 23:40:32;;;;;;;3.25;2.10;;;;;;;14.89;100.00;102142.91;6238176;22;20016;-84
